sensor_id;sensor_type;location;lat;lon;timestamp;P1;durP1;ratioP1;P2;durP2;ratioP2
34212;SDS011;20477;51.390;8.102;2024-03-08T00:01:03;44.45;;;26.95;;
34212;SDS011;20477;51.390;8.102;2024-03-08T00:03:30;40.90;;;25.70;;
34212;SDS011;20477;51.390;8.102;2024-03-08T00:05:57;43.65;;;26.73;;
34212;SDS011;20477;51.390;8.102;2024-03-08T00:08:25;44.83;;;26.42;;
34212;SDS011;20477;51.390;8.102;2024-03-08T00:10:54;41.13;;;25.63;;
34212;SDS011;20477;51.390;8.102;2024-03-08T00:13:21;43.50;;;26.13;;
34212;SDS011;20477;51.390;8.102;2024-03-08T00:15:48;41.92;;;25.42;;
34212;SDS011;20477;51.390;8.102;2024-03-08T00:18:15;39.80;;;25.50;;
34212;SDS011;20477;51.390;8.102;2024-03-08T00:20:43;39.10;;;26.10;;
34212;SDS011;20477;51.390;8.102;2024-03-08T00:23:10;40.42;;;25.65;;
34212;SDS011;20477;51.390;8.102;2024-03-08T00:25:37;42.13;;;26.77;;
34212;SDS011;20477;51.390;8.102;2024-03-08T00:28:06;41.08;;;26.33;;
34212;SDS011;20477;51.390;8.102;2024-03-08T00:30:33;43.63;;;25.25;;
34212;SDS011;20477;51.390;8.102;2024-03-08T00:33:01;42.22;;;26.80;;
34212;SDS011;20477;51.390;8.102;2024-03-08T00:35:28;45.13;;;26.13;;
34212;SDS011;20477;51.390;8.102;2024-03-08T00:37:56;37.88;;;24.42;;
34212;SDS011;20477;51.390;8.102;2024-03-08T00:40:23;39.90;;;25.42;;
34212;SDS011;20477;51.390;8.102;2024-03-08T00:42:50;45.42;;;26.10;;
34212;SDS011;20477;51.390;8.102;2024-03-08T00:45:19;48.30;;;27.80;;
34212;SDS011;20477;51.390;8.102;2024-03-08T00:47:46;41.67;;;26.13;;
34212;SDS011;20477;51.390;8.102;2024-03-08T00:50:14;43.97;;;26.50;;
34212;SDS011;20477;51.390;8.102;2024-03-08T00:52:41;40.75;;;24.45;;
34212;SDS011;20477;51.390;8.102;2024-03-08T00:55:08;43.40;;;26.42;;
34212;SDS011;20477;51.390;8.102;2024-03-08T00:57:36;40.75;;;25.98;;
34212;SDS011;20477;51.390;8.102;2024-03-08T01:00:03;43.70;;;26.80;;
34212;SDS011;20477;51.390;8.102;2024-03-08T01:02:32;42.50;;;26.75;;
34212;SDS011;20477;51.390;8.102;2024-03-08T01:04:59;45.35;;;26.02;;
34212;SDS011;20477;51.390;8.102;2024-03-08T01:07:27;47.50;;;27.45;;
34212;SDS011;20477;51.390;8.102;2024-03-08T01:09:54;41.72;;;26.00;;
34212;SDS011;20477;51.390;8.102;2024-03-08T01:12:21;44.08;;;25.40;;
34212;SDS011;20477;51.390;8.102;2024-03-08T01:14:48;37.70;;;25.15;;
34212;SDS011;20477;51.390;8.102;2024-03-08T01:17:16;46.40;;;26.90;;
34212;SDS011;20477;51.390;8.102;2024-03-08T01:19:44;42.75;;;25.48;;
34212;SDS011;20477;51.390;8.102;2024-03-08T01:22:12;43.20;;;25.20;;
34212;SDS011;20477;51.390;8.102;2024-03-08T01:24:39;41.83;;;25.55;;
34212;SDS011;20477;51.390;8.102;2024-03-08T01:27:06;46.63;;;25.25;;
34212;SDS011;20477;51.390;8.102;2024-03-08T01:29:34;42.92;;;25.45;;
34212;SDS011;20477;51.390;8.102;2024-03-08T01:32:01;40.72;;;25.25;;
34212;SDS011;20477;51.390;8.102;2024-03-08T01:34:28;45.90;;;26.33;;
34212;SDS011;20477;51.390;8.102;2024-03-08T01:36:57;43.13;;;25.48;;
34212;SDS011;20477;51.390;8.102;2024-03-08T01:39:24;46.50;;;26.58;;
34212;SDS011;20477;51.390;8.102;2024-03-08T01:41:52;44.53;;;25.38;;
34212;SDS011;20477;51.390;8.102;2024-03-08T01:44:19;51.40;;;26.92;;
34212;SDS011;20477;51.390;8.102;2024-03-08T01:46:46;49.95;;;28.67;;
34212;SDS011;20477;51.390;8.102;2024-03-08T01:49:15;47.17;;;27.50;;
34212;SDS011;20477;51.390;8.102;2024-03-08T01:51:42;43.15;;;26.25;;
34212;SDS011;20477;51.390;8.102;2024-03-08T01:54:10;45.80;;;26.92;;
34212;SDS011;20477;51.390;8.102;2024-03-08T01:56:38;44.33;;;26.70;;
34212;SDS011;20477;51.390;8.102;2024-03-08T01:59:06;43.97;;;26.35;;
34212;SDS011;20477;51.390;8.102;2024-03-08T02:01:34;44.90;;;27.38;;
34212;SDS011;20477;51.390;8.102;2024-03-08T02:04:02;45.45;;;26.48;;
34212;SDS011;20477;51.390;8.102;2024-03-08T02:06:29;46.35;;;26.95;;
34212;SDS011;20477;51.390;8.102;2024-03-08T02:08:56;46.70;;;27.23;;
34212;SDS011;20477;51.390;8.102;2024-03-08T02:11:25;49.42;;;27.45;;
34212;SDS011;20477;51.390;8.102;2024-03-08T02:13:53;46.42;;;27.25;;
34212;SDS011;20477;51.390;8.102;2024-03-08T02:16:20;48.67;;;28.02;;
34212;SDS011;20477;51.390;8.102;2024-03-08T02:18:47;45.70;;;26.52;;
34212;SDS011;20477;51.390;8.102;2024-03-08T02:21:17;44.85;;;26.15;;
34212;SDS011;20477;51.390;8.102;2024-03-08T02:23:45;48.78;;;28.40;;
34212;SDS011;20477;51.390;8.102;2024-03-08T02:26:13;46.88;;;27.45;;
34212;SDS011;20477;51.390;8.102;2024-03-08T02:28:40;46.53;;;26.60;;
34212;SDS011;20477;51.390;8.102;2024-03-08T02:31:07;44.38;;;27.70;;
34212;SDS011;20477;51.390;8.102;2024-03-08T02:33:35;52.13;;;27.33;;
34212;SDS011;20477;51.390;8.102;2024-03-08T02:36:02;46.70;;;25.85;;
34212;SDS011;20477;51.390;8.102;2024-03-08T02:38:31;48.85;;;26.20;;
34212;SDS011;20477;51.390;8.102;2024-03-08T02:40:58;43.78;;;26.23;;
34212;SDS011;20477;51.390;8.102;2024-03-08T02:43:25;45.38;;;27.38;;
34212;SDS011;20477;51.390;8.102;2024-03-08T02:45:53;47.70;;;26.67;;
34212;SDS011;20477;51.390;8.102;2024-03-08T02:48:20;44.85;;;27.27;;
34212;SDS011;20477;51.390;8.102;2024-03-08T02:50:47;46.40;;;27.73;;
34212;SDS011;20477;51.390;8.102;2024-03-08T02:53:15;54.83;;;28.33;;
34212;SDS011;20477;51.390;8.102;2024-03-08T02:55:44;46.17;;;27.15;;
34212;SDS011;20477;51.390;8.102;2024-03-08T02:58:11;56.72;;;28.52;;
34212;SDS011;20477;51.390;8.102;2024-03-08T03:00:38;49.88;;;28.15;;
34212;SDS011;20477;51.390;8.102;2024-03-08T03:03:06;47.33;;;28.40;;
34212;SDS011;20477;51.390;8.102;2024-03-08T03:05:34;48.03;;;28.70;;
34212;SDS011;20477;51.390;8.102;2024-03-08T03:08:01;50.97;;;26.50;;
34212;SDS011;20477;51.390;8.102;2024-03-08T03:10:29;48.63;;;28.13;;
34212;SDS011;20477;51.390;8.102;2024-03-08T03:12:57;45.75;;;27.52;;
34212;SDS011;20477;51.390;8.102;2024-03-08T03:15:24;51.88;;;29.40;;
34212;SDS011;20477;51.390;8.102;2024-03-08T03:17:53;53.42;;;28.45;;
34212;SDS011;20477;51.390;8.102;2024-03-08T03:20:21;50.33;;;28.52;;
34212;SDS011;20477;51.390;8.102;2024-03-08T03:22:48;49.90;;;28.52;;
34212;SDS011;20477;51.390;8.102;2024-03-08T03:25:15;49.70;;;29.08;;
34212;SDS011;20477;51.390;8.102;2024-03-08T03:27:43;45.28;;;27.23;;
34212;SDS011;20477;51.390;8.102;2024-03-08T03:30:12;48.47;;;27.88;;
34212;SDS011;20477;51.390;8.102;2024-03-08T03:32:39;49.78;;;28.67;;
34212;SDS011;20477;51.390;8.102;2024-03-08T03:35:06;57.10;;;31.67;;
34212;SDS011;20477;51.390;8.102;2024-03-08T03:37:34;53.33;;;30.48;;
34212;SDS011;20477;51.390;8.102;2024-03-08T03:40:01;50.05;;;28.63;;
34212;SDS011;20477;51.390;8.102;2024-03-08T03:42:28;47.28;;;28.17;;
34212;SDS011;20477;51.390;8.102;2024-03-08T03:44:56;49.58;;;27.48;;
34212;SDS011;20477;51.390;8.102;2024-03-08T03:47:24;48.70;;;27.30;;
34212;SDS011;20477;51.390;8.102;2024-03-08T03:49:52;51.45;;;28.48;;
34212;SDS011;20477;51.390;8.102;2024-03-08T03:52:19;56.10;;;29.05;;
34212;SDS011;20477;51.390;8.102;2024-03-08T03:54:46;59.28;;;29.15;;
34212;SDS011;20477;51.390;8.102;2024-03-08T03:57:13;50.00;;;26.90;;
34212;SDS011;20477;51.390;8.102;2024-03-08T03:59:41;52.95;;;29.55;;
34212;SDS011;20477;51.390;8.102;2024-03-08T04:02:08;47.50;;;27.88;;
34212;SDS011;20477;51.390;8.102;2024-03-08T04:04:37;51.00;;;29.15;;
34212;SDS011;20477;51.390;8.102;2024-03-08T04:07:04;49.83;;;25.77;;
34212;SDS011;20477;51.390;8.102;2024-03-08T04:09:31;45.22;;;27.92;;
34212;SDS011;20477;51.390;8.102;2024-03-08T04:11:58;45.55;;;26.90;;
34212;SDS011;20477;51.390;8.102;2024-03-08T04:14:26;46.45;;;27.88;;
34212;SDS011;20477;51.390;8.102;2024-03-08T04:16:53;48.30;;;27.05;;
34212;SDS011;20477;51.390;8.102;2024-03-08T04:19:20;51.45;;;28.73;;
34212;SDS011;20477;51.390;8.102;2024-03-08T04:21:49;53.25;;;28.63;;
34212;SDS011;20477;51.390;8.102;2024-03-08T04:24:16;49.40;;;27.35;;
34212;SDS011;20477;51.390;8.102;2024-03-08T04:26:45;46.83;;;27.15;;
34212;SDS011;20477;51.390;8.102;2024-03-08T04:29:12;56.08;;;29.27;;
34212;SDS011;20477;51.390;8.102;2024-03-08T04:31:40;51.13;;;29.25;;
34212;SDS011;20477;51.390;8.102;2024-03-08T04:34:07;45.35;;;26.30;;
34212;SDS011;20477;51.390;8.102;2024-03-08T04:36:34;55.15;;;29.25;;
34212;SDS011;20477;51.390;8.102;2024-03-08T04:39:03;52.42;;;29.02;;
34212;SDS011;20477;51.390;8.102;2024-03-08T04:41:30;67.55;;;30.13;;
34212;SDS011;20477;51.390;8.102;2024-03-08T04:43:57;49.58;;;28.88;;
34212;SDS011;20477;51.390;8.102;2024-03-08T04:46:25;51.50;;;28.60;;
34212;SDS011;20477;51.390;8.102;2024-03-08T04:48:52;47.60;;;28.83;;
34212;SDS011;20477;51.390;8.102;2024-03-08T04:51:19;54.03;;;29.25;;
34212;SDS011;20477;51.390;8.102;2024-03-08T04:53:47;54.58;;;29.75;;
34212;SDS011;20477;51.390;8.102;2024-03-08T04:56:15;47.08;;;28.13;;
34212;SDS011;20477;51.390;8.102;2024-03-08T04:58:43;51.88;;;29.38;;
34212;SDS011;20477;51.390;8.102;2024-03-08T05:01:10;56.90;;;28.85;;
34212;SDS011;20477;51.390;8.102;2024-03-08T05:03:37;48.85;;;29.40;;
34212;SDS011;20477;51.390;8.102;2024-03-08T05:06:04;49.95;;;29.45;;
34212;SDS011;20477;51.390;8.102;2024-03-08T05:08:32;54.58;;;29.65;;
34212;SDS011;20477;51.390;8.102;2024-03-08T05:10:59;53.70;;;29.80;;
34212;SDS011;20477;51.390;8.102;2024-03-08T05:13:28;48.55;;;29.48;;
34212;SDS011;20477;51.390;8.102;2024-03-08T05:15:55;52.80;;;29.50;;
34212;SDS011;20477;51.390;8.102;2024-03-08T05:18:22;58.05;;;31.30;;
34212;SDS011;20477;51.390;8.102;2024-03-08T05:20:50;54.85;;;31.48;;
34212;SDS011;20477;51.390;8.102;2024-03-08T05:23:17;58.08;;;31.52;;
34212;SDS011;20477;51.390;8.102;2024-03-08T05:25:44;55.40;;;32.03;;
34212;SDS011;20477;51.390;8.102;2024-03-08T05:28:12;52.78;;;31.10;;
34212;SDS011;20477;51.390;8.102;2024-03-08T05:30:40;56.00;;;29.00;;
34212;SDS011;20477;51.390;8.102;2024-03-08T05:33:08;47.90;;;31.05;;
34212;SDS011;20477;51.390;8.102;2024-03-08T05:35:35;53.05;;;30.42;;
34212;SDS011;20477;51.390;8.102;2024-03-08T05:38:02;47.75;;;29.17;;
34212;SDS011;20477;51.390;8.102;2024-03-08T05:40:30;52.28;;;30.17;;
34212;SDS011;20477;51.390;8.102;2024-03-08T05:42:57;56.65;;;30.50;;
34212;SDS011;20477;51.390;8.102;2024-03-08T05:45:24;52.58;;;30.40;;
34212;SDS011;20477;51.390;8.102;2024-03-08T05:47:53;52.65;;;31.05;;
34212;SDS011;20477;51.390;8.102;2024-03-08T05:50:21;50.05;;;30.17;;
34212;SDS011;20477;51.390;8.102;2024-03-08T05:52:48;59.50;;;32.08;;
34212;SDS011;20477;51.390;8.102;2024-03-08T05:55:15;55.92;;;31.48;;
34212;SDS011;20477;51.390;8.102;2024-03-08T05:57:43;54.40;;;32.20;;
34212;SDS011;20477;51.390;8.102;2024-03-08T06:00:10;55.20;;;30.38;;
34212;SDS011;20477;51.390;8.102;2024-03-08T06:02:38;56.97;;;33.33;;
34212;SDS011;20477;51.390;8.102;2024-03-08T06:05:07;55.88;;;32.72;;
34212;SDS011;20477;51.390;8.102;2024-03-08T06:07:34;57.13;;;31.58;;
34212;SDS011;20477;51.390;8.102;2024-03-08T06:10:01;57.53;;;31.98;;
34212;SDS011;20477;51.390;8.102;2024-03-08T06:12:29;54.65;;;31.77;;
34212;SDS011;20477;51.390;8.102;2024-03-08T06:14:56;60.15;;;30.85;;
34212;SDS011;20477;51.390;8.102;2024-03-08T06:17:23;56.92;;;31.73;;
34212;SDS011;20477;51.390;8.102;2024-03-08T06:19:51;52.35;;;31.77;;
34212;SDS011;20477;51.390;8.102;2024-03-08T06:22:19;52.55;;;30.60;;
34212;SDS011;20477;51.390;8.102;2024-03-08T06:24:46;56.20;;;31.73;;
34212;SDS011;20477;51.390;8.102;2024-03-08T06:27:14;52.65;;;31.95;;
34212;SDS011;20477;51.390;8.102;2024-03-08T06:29:41;52.08;;;31.00;;
34212;SDS011;20477;51.390;8.102;2024-03-08T06:32:08;53.22;;;31.50;;
34212;SDS011;20477;51.390;8.102;2024-03-08T06:34:36;57.03;;;33.47;;
34212;SDS011;20477;51.390;8.102;2024-03-08T06:37:03;76.10;;;33.80;;
34212;SDS011;20477;51.390;8.102;2024-03-08T06:39:32;54.17;;;31.35;;
34212;SDS011;20477;51.390;8.102;2024-03-08T06:41:59;57.20;;;30.05;;
34212;SDS011;20477;51.390;8.102;2024-03-08T06:44:26;53.33;;;31.30;;
34212;SDS011;20477;51.390;8.102;2024-03-08T06:46:53;52.35;;;29.20;;
34212;SDS011;20477;51.390;8.102;2024-03-08T06:49:25;53.28;;;30.05;;
34212;SDS011;20477;51.390;8.102;2024-03-08T06:51:52;55.92;;;30.48;;
34212;SDS011;20477;51.390;8.102;2024-03-08T06:54:20;55.08;;;29.73;;
34212;SDS011;20477;51.390;8.102;2024-03-08T06:56:48;54.97;;;31.98;;
34212;SDS011;20477;51.390;8.102;2024-03-08T06:59:16;53.17;;;28.88;;
34212;SDS011;20477;51.390;8.102;2024-03-08T07:01:43;55.60;;;30.92;;
34212;SDS011;20477;51.390;8.102;2024-03-08T07:04:10;62.65;;;32.22;;
34212;SDS011;20477;51.390;8.102;2024-03-08T07:06:38;52.15;;;29.92;;
34212;SDS011;20477;51.390;8.102;2024-03-08T07:09:05;65.88;;;30.70;;
34212;SDS011;20477;51.390;8.102;2024-03-08T07:11:32;66.35;;;33.42;;
34212;SDS011;20477;51.390;8.102;2024-03-08T07:14:01;54.60;;;30.05;;
34212;SDS011;20477;51.390;8.102;2024-03-08T07:16:28;55.10;;;30.58;;
34212;SDS011;20477;51.390;8.102;2024-03-08T07:18:55;57.05;;;29.50;;
34212;SDS011;20477;51.390;8.102;2024-03-08T07:21:23;53.28;;;30.13;;
34212;SDS011;20477;51.390;8.102;2024-03-08T07:23:50;53.50;;;30.25;;
34212;SDS011;20477;51.390;8.102;2024-03-08T07:26:18;62.00;;;31.00;;
34212;SDS011;20477;51.390;8.102;2024-03-08T07:28:46;49.05;;;30.40;;
34212;SDS011;20477;51.390;8.102;2024-03-08T07:31:15;63.95;;;32.25;;
34212;SDS011;20477;51.390;8.102;2024-03-08T07:33:42;50.20;;;31.48;;
34212;SDS011;20477;51.390;8.102;2024-03-08T07:36:10;49.65;;;30.88;;
34212;SDS011;20477;51.390;8.102;2024-03-08T07:38:37;58.65;;;32.28;;
34212;SDS011;20477;51.390;8.102;2024-03-08T07:41:04;52.13;;;30.50;;
34212;SDS011;20477;51.390;8.102;2024-03-08T07:43:31;54.00;;;30.88;;
34212;SDS011;20477;51.390;8.102;2024-03-08T07:45:59;46.80;;;29.17;;
34212;SDS011;20477;51.390;8.102;2024-03-08T07:48:28;46.15;;;29.73;;
34212;SDS011;20477;51.390;8.102;2024-03-08T07:50:55;53.30;;;30.80;;
34212;SDS011;20477;51.390;8.102;2024-03-08T07:53:23;52.25;;;29.80;;
34212;SDS011;20477;51.390;8.102;2024-03-08T07:55:50;58.28;;;31.42;;
34212;SDS011;20477;51.390;8.102;2024-03-08T07:58:17;48.60;;;29.23;;
34212;SDS011;20477;51.390;8.102;2024-03-08T08:00:45;53.15;;;30.88;;
34212;SDS011;20477;51.390;8.102;2024-03-08T08:03:12;49.50;;;28.65;;
34212;SDS011;20477;51.390;8.102;2024-03-08T08:05:41;54.63;;;29.90;;
34212;SDS011;20477;51.390;8.102;2024-03-08T08:08:08;54.28;;;32.15;;
34212;SDS011;20477;51.390;8.102;2024-03-08T08:10:35;49.28;;;29.02;;
34212;SDS011;20477;51.390;8.102;2024-03-08T08:13:02;51.10;;;29.70;;
34212;SDS011;20477;51.390;8.102;2024-03-08T08:15:31;55.08;;;30.30;;
34212;SDS011;20477;51.390;8.102;2024-03-08T08:17:58;47.10;;;28.73;;
34212;SDS011;20477;51.390;8.102;2024-03-08T08:20:25;44.92;;;28.77;;
34212;SDS011;20477;51.390;8.102;2024-03-08T08:22:54;46.25;;;28.80;;
34212;SDS011;20477;51.390;8.102;2024-03-08T08:25:21;51.65;;;28.77;;
34212;SDS011;20477;51.390;8.102;2024-03-08T08:27:49;49.30;;;27.85;;
34212;SDS011;20477;51.390;8.102;2024-03-08T08:30:16;42.13;;;26.58;;
34212;SDS011;20477;51.390;8.102;2024-03-08T08:32:43;44.72;;;26.77;;
34212;SDS011;20477;51.390;8.102;2024-03-08T08:35:11;45.67;;;26.85;;
34212;SDS011;20477;51.390;8.102;2024-03-08T08:37:38;42.53;;;24.42;;
34212;SDS011;20477;51.390;8.102;2024-03-08T08:40:08;37.25;;;22.95;;
34212;SDS011;20477;51.390;8.102;2024-03-08T08:42:35;33.15;;;22.30;;
34212;SDS011;20477;51.390;8.102;2024-03-08T08:45:03;34.88;;;21.92;;
34212;SDS011;20477;51.390;8.102;2024-03-08T08:47:41;31.20;;;18.85;;
34212;SDS011;20477;51.390;8.102;2024-03-08T08:50:09;33.53;;;19.58;;
34212;SDS011;20477;51.390;8.102;2024-03-08T08:52:36;38.42;;;24.30;;
34212;SDS011;20477;51.390;8.102;2024-03-08T08:55:06;32.42;;;19.40;;
34212;SDS011;20477;51.390;8.102;2024-03-08T08:57:35;31.05;;;18.00;;
34212;SDS011;20477;51.390;8.102;2024-03-08T09:00:02;34.83;;;21.27;;
34212;SDS011;20477;51.390;8.102;2024-03-08T09:02:29;38.53;;;23.95;;
34212;SDS011;20477;51.390;8.102;2024-03-08T09:04:57;32.63;;;19.55;;
34212;SDS011;20477;51.390;8.102;2024-03-08T09:07:24;39.05;;;21.08;;
34212;SDS011;20477;51.390;8.102;2024-03-08T09:09:52;33.38;;;18.55;;
34212;SDS011;20477;51.390;8.102;2024-03-08T09:12:19;27.75;;;17.70;;
34212;SDS011;20477;51.390;8.102;2024-03-08T09:14:47;32.60;;;20.48;;
34212;SDS011;20477;51.390;8.102;2024-03-08T09:17:15;29.85;;;18.73;;
34212;SDS011;20477;51.390;8.102;2024-03-08T09:19:42;33.13;;;19.35;;
34212;SDS011;20477;51.390;8.102;2024-03-08T09:22:09;26.85;;;17.23;;
34212;SDS011;20477;51.390;8.102;2024-03-08T09:24:37;26.08;;;16.42;;
34212;SDS011;20477;51.390;8.102;2024-03-08T09:27:04;25.30;;;15.02;;
34212;SDS011;20477;51.390;8.102;2024-03-08T09:29:31;28.48;;;16.50;;
34212;SDS011;20477;51.390;8.102;2024-03-08T09:32:00;27.42;;;17.55;;
34212;SDS011;20477;51.390;8.102;2024-03-08T09:34:27;31.08;;;16.63;;
34212;SDS011;20477;51.390;8.102;2024-03-08T09:37:03;25.65;;;16.58;;
34212;SDS011;20477;51.390;8.102;2024-03-08T09:39:31;26.17;;;17.67;;
34212;SDS011;20477;51.390;8.102;2024-03-08T09:41:59;37.70;;;20.88;;
34212;SDS011;20477;51.390;8.102;2024-03-08T09:44:26;29.67;;;18.30;;
34212;SDS011;20477;51.390;8.102;2024-03-08T09:46:54;26.75;;;17.23;;
34212;SDS011;20477;51.390;8.102;2024-03-08T09:49:23;27.05;;;16.00;;
34212;SDS011;20477;51.390;8.102;2024-03-08T09:51:50;27.67;;;16.38;;
34212;SDS011;20477;51.390;8.102;2024-03-08T09:54:19;23.98;;;15.95;;
34212;SDS011;20477;51.390;8.102;2024-03-08T09:56:49;26.65;;;17.35;;
34212;SDS011;20477;51.390;8.102;2024-03-08T09:59:18;27.83;;;15.88;;
34212;SDS011;20477;51.390;8.102;2024-03-08T10:01:45;24.73;;;15.10;;
34212;SDS011;20477;51.390;8.102;2024-03-08T10:04:12;24.70;;;14.15;;
34212;SDS011;20477;51.390;8.102;2024-03-08T10:06:41;30.52;;;17.80;;
34212;SDS011;20477;51.390;8.102;2024-03-08T10:09:08;29.27;;;17.42;;
34212;SDS011;20477;51.390;8.102;2024-03-08T10:11:36;25.33;;;17.15;;
34212;SDS011;20477;51.390;8.102;2024-03-08T10:14:03;23.50;;;15.90;;
34212;SDS011;20477;51.390;8.102;2024-03-08T10:16:31;28.15;;;15.63;;
34212;SDS011;20477;51.390;8.102;2024-03-08T10:18:59;23.15;;;14.55;;
34212;SDS011;20477;51.390;8.102;2024-03-08T10:21:26;24.63;;;16.05;;
34212;SDS011;20477;51.390;8.102;2024-03-08T10:23:55;29.58;;;13.80;;
34212;SDS011;20477;51.390;8.102;2024-03-08T10:26:22;25.85;;;16.55;;
34212;SDS011;20477;51.390;8.102;2024-03-08T10:28:50;23.20;;;16.25;;
34212;SDS011;20477;51.390;8.102;2024-03-08T10:31:18;26.75;;;15.45;;
34212;SDS011;20477;51.390;8.102;2024-03-08T10:33:46;24.60;;;15.23;;
34212;SDS011;20477;51.390;8.102;2024-03-08T10:36:14;22.00;;;13.90;;
34212;SDS011;20477;51.390;8.102;2024-03-08T10:38:42;21.23;;;14.07;;
34212;SDS011;20477;51.390;8.102;2024-03-08T10:41:11;22.70;;;12.93;;
34212;SDS011;20477;51.390;8.102;2024-03-08T10:43:42;22.73;;;14.13;;
34212;SDS011;20477;51.390;8.102;2024-03-08T10:46:13;26.05;;;15.27;;
34212;SDS011;20477;51.390;8.102;2024-03-08T10:48:43;23.52;;;13.38;;
34212;SDS011;20477;51.390;8.102;2024-03-08T10:51:11;20.50;;;13.30;;
34212;SDS011;20477;51.390;8.102;2024-03-08T10:53:38;20.63;;;13.60;;
34212;SDS011;20477;51.390;8.102;2024-03-08T10:56:06;21.40;;;13.60;;
34212;SDS011;20477;51.390;8.102;2024-03-08T10:58:35;21.15;;;13.50;;
34212;SDS011;20477;51.390;8.102;2024-03-08T11:01:03;23.55;;;12.90;;
34212;SDS011;20477;51.390;8.102;2024-03-08T11:03:46;16.65;;;10.77;;
34212;SDS011;20477;51.390;8.102;2024-03-08T11:08:40;19.88;;;12.48;;
34212;SDS011;20477;51.390;8.102;2024-03-08T11:11:22;19.70;;;13.43;;
34212;SDS011;20477;51.390;8.102;2024-03-08T11:13:51;22.02;;;13.23;;
34212;SDS011;20477;51.390;8.102;2024-03-08T11:19:01;19.73;;;14.02;;
34212;SDS011;20477;51.390;8.102;2024-03-08T11:21:32;21.48;;;13.52;;
34212;SDS011;20477;51.390;8.102;2024-03-08T11:24:00;20.20;;;12.30;;
34212;SDS011;20477;51.390;8.102;2024-03-08T11:26:27;20.58;;;12.15;;
34212;SDS011;20477;51.390;8.102;2024-03-08T11:28:59;19.80;;;12.57;;
34212;SDS011;20477;51.390;8.102;2024-03-08T11:31:46;21.48;;;14.57;;
34212;SDS011;20477;51.390;8.102;2024-03-08T11:34:15;22.50;;;13.63;;
34212;SDS011;20477;51.390;8.102;2024-03-08T11:36:42;18.33;;;11.77;;
34212;SDS011;20477;51.390;8.102;2024-03-08T11:39:09;20.27;;;12.48;;
34212;SDS011;20477;51.390;8.102;2024-03-08T11:41:39;18.15;;;12.50;;
34212;SDS011;20477;51.390;8.102;2024-03-08T11:44:10;16.20;;;10.68;;
34212;SDS011;20477;51.390;8.102;2024-03-08T11:46:38;18.02;;;12.35;;
34212;SDS011;20477;51.390;8.102;2024-03-08T11:49:05;22.23;;;13.02;;
34212;SDS011;20477;51.390;8.102;2024-03-08T11:51:32;25.65;;;13.30;;
34212;SDS011;20477;51.390;8.102;2024-03-08T11:54:00;18.02;;;13.07;;
34212;SDS011;20477;51.390;8.102;2024-03-08T11:56:27;20.58;;;13.35;;
34212;SDS011;20477;51.390;8.102;2024-03-08T11:58:55;20.20;;;12.18;;
34212;SDS011;20477;51.390;8.102;2024-03-08T12:01:25;19.65;;;12.38;;
34212;SDS011;20477;51.390;8.102;2024-03-08T12:03:53;22.42;;;12.70;;
34212;SDS011;20477;51.390;8.102;2024-03-08T12:06:20;20.73;;;14.57;;
34212;SDS011;20477;51.390;8.102;2024-03-08T12:08:48;20.45;;;14.40;;
34212;SDS011;20477;51.390;8.102;2024-03-08T12:11:15;23.25;;;14.93;;
34212;SDS011;20477;51.390;8.102;2024-03-08T12:13:43;34.80;;;14.77;;
34212;SDS011;20477;51.390;8.102;2024-03-08T12:16:11;19.58;;;14.57;;
34212;SDS011;20477;51.390;8.102;2024-03-08T12:18:40;21.42;;;14.82;;
34212;SDS011;20477;51.390;8.102;2024-03-08T12:21:08;19.10;;;13.30;;
34212;SDS011;20477;51.390;8.102;2024-03-08T12:23:36;19.45;;;13.02;;
34212;SDS011;20477;51.390;8.102;2024-03-08T12:26:10;21.50;;;14.23;;
34212;SDS011;20477;51.390;8.102;2024-03-08T12:28:38;20.58;;;13.88;;
34212;SDS011;20477;51.390;8.102;2024-03-08T12:31:06;24.95;;;13.77;;
34212;SDS011;20477;51.390;8.102;2024-03-08T12:33:33;22.38;;;13.90;;
34212;SDS011;20477;51.390;8.102;2024-03-08T12:36:02;19.15;;;13.88;;
34212;SDS011;20477;51.390;8.102;2024-03-08T12:38:29;20.38;;;13.55;;
34212;SDS011;20477;51.390;8.102;2024-03-08T12:40:58;21.35;;;14.43;;
34212;SDS011;20477;51.390;8.102;2024-03-08T12:43:34;19.73;;;13.25;;
34212;SDS011;20477;51.390;8.102;2024-03-08T12:46:01;20.67;;;14.50;;
34212;SDS011;20477;51.390;8.102;2024-03-08T12:48:33;23.55;;;14.75;;
34212;SDS011;20477;51.390;8.102;2024-03-08T12:51:00;24.75;;;15.05;;
34212;SDS011;20477;51.390;8.102;2024-03-08T12:53:29;24.42;;;15.73;;
34212;SDS011;20477;51.390;8.102;2024-03-08T12:55:56;23.85;;;16.05;;
34212;SDS011;20477;51.390;8.102;2024-03-08T12:58:24;23.00;;;15.38;;
34212;SDS011;20477;51.390;8.102;2024-03-08T13:00:51;22.67;;;14.73;;
34212;SDS011;20477;51.390;8.102;2024-03-08T13:03:19;23.38;;;15.30;;
34212;SDS011;20477;51.390;8.102;2024-03-08T13:05:47;25.23;;;14.93;;
34212;SDS011;20477;51.390;8.102;2024-03-08T13:08:14;25.30;;;17.17;;
34212;SDS011;20477;51.390;8.102;2024-03-08T13:10:42;22.60;;;14.90;;
34212;SDS011;20477;51.390;8.102;2024-03-08T13:13:10;24.80;;;15.93;;
34212;SDS011;20477;51.390;8.102;2024-03-08T13:15:40;26.33;;;17.08;;
34212;SDS011;20477;51.390;8.102;2024-03-08T13:18:07;24.25;;;16.77;;
34212;SDS011;20477;51.390;8.102;2024-03-08T13:20:34;28.55;;;17.67;;
34212;SDS011;20477;51.390;8.102;2024-03-08T13:23:12;24.73;;;17.88;;
34212;SDS011;20477;51.390;8.102;2024-03-08T13:25:39;27.02;;;16.25;;
34212;SDS011;20477;51.390;8.102;2024-03-08T13:28:08;25.70;;;16.33;;
34212;SDS011;20477;51.390;8.102;2024-03-08T13:30:35;27.02;;;17.70;;
34212;SDS011;20477;51.390;8.102;2024-03-08T13:33:03;22.77;;;15.63;;
34212;SDS011;20477;51.390;8.102;2024-03-08T13:35:30;24.70;;;16.30;;
34212;SDS011;20477;51.390;8.102;2024-03-08T13:37:57;28.73;;;17.63;;
34212;SDS011;20477;51.390;8.102;2024-03-08T13:40:25;25.05;;;16.70;;
34212;SDS011;20477;51.390;8.102;2024-03-08T13:42:55;28.02;;;17.48;;
34212;SDS011;20477;51.390;8.102;2024-03-08T13:45:24;24.52;;;15.80;;
34212;SDS011;20477;51.390;8.102;2024-03-08T13:47:52;24.17;;;17.25;;
34212;SDS011;20477;51.390;8.102;2024-03-08T13:50:21;23.05;;;15.00;;
34212;SDS011;20477;51.390;8.102;2024-03-08T13:52:49;24.73;;;16.48;;
34212;SDS011;20477;51.390;8.102;2024-03-08T13:55:19;27.00;;;16.67;;
34212;SDS011;20477;51.390;8.102;2024-03-08T13:57:47;24.33;;;15.57;;
34212;SDS011;20477;51.390;8.102;2024-03-08T14:00:14;25.40;;;16.63;;
34212;SDS011;20477;51.390;8.102;2024-03-08T14:02:43;28.60;;;17.08;;
34212;SDS011;20477;51.390;8.102;2024-03-08T14:05:11;27.60;;;17.27;;
34212;SDS011;20477;51.390;8.102;2024-03-08T14:07:38;25.20;;;18.13;;
34212;SDS011;20477;51.390;8.102;2024-03-08T14:10:06;25.23;;;18.40;;
34212;SDS011;20477;51.390;8.102;2024-03-08T14:12:33;23.13;;;15.55;;
34212;SDS011;20477;51.390;8.102;2024-03-08T14:15:01;26.95;;;15.15;;
34212;SDS011;20477;51.390;8.102;2024-03-08T14:17:28;27.27;;;17.55;;
34212;SDS011;20477;51.390;8.102;2024-03-08T14:19:56;24.00;;;17.73;;
34212;SDS011;20477;51.390;8.102;2024-03-08T14:22:24;27.60;;;17.83;;
34212;SDS011;20477;51.390;8.102;2024-03-08T14:24:51;25.45;;;17.33;;
34212;SDS011;20477;51.390;8.102;2024-03-08T14:27:18;27.10;;;17.00;;
34212;SDS011;20477;51.390;8.102;2024-03-08T14:29:46;29.25;;;17.20;;